createdAt,value
2023-03-22T00:00:15.307Z,45.79
2023-03-22T00:02:48.168Z,46.18
2023-03-22T00:05:21.082Z,46.28
2023-03-22T00:07:58.024Z,46.12
2023-03-22T00:10:30.788Z,46.46
2023-03-22T00:13:09.362Z,46.08
2023-03-22T00:15:44.642Z,46.27
2023-03-22T00:18:18.203Z,46.00
2023-03-22T00:20:56.755Z,46.23
2023-03-22T00:23:29.747Z,45.96
2023-03-22T00:26:02.271Z,46.29
2023-03-22T00:28:36.162Z,45.72
2023-03-22T00:31:10.878Z,45.47
2023-03-22T00:33:43.476Z,45.93
2023-03-22T00:36:16.188Z,45.99
2023-03-22T00:38:48.736Z,46.36
2023-03-22T00:41:24.041Z,46.45
2023-03-22T00:43:56.798Z,46.13
2023-03-22T00:46:30.302Z,46.37
2023-03-22T00:49:02.920Z,46.28
2023-03-22T00:51:35.651Z,45.95
2023-03-22T00:54:08.389Z,45.63
2023-03-22T00:56:41.042Z,46.76
2023-03-22T00:59:14.253Z,46.67
2023-03-22T01:01:46.847Z,46.52
2023-03-22T01:04:25.808Z,46.38
2023-03-22T01:07:03.745Z,46.86
2023-03-22T01:09:36.478Z,46.62
2023-03-22T01:12:08.995Z,46.85
2023-03-22T01:14:42.728Z,46.27
2023-03-22T01:17:16.059Z,46.05
2023-03-22T01:19:48.597Z,46.44
2023-03-22T01:22:21.084Z,46.38
2023-03-22T01:24:53.739Z,45.95
2023-03-22T01:27:26.251Z,45.71
2023-03-22T01:29:58.849Z,46.39
2023-03-22T01:32:31.537Z,46.24
2023-03-22T01:35:06.341Z,46.34
2023-03-22T01:37:38.935Z,46.28
2023-03-22T01:40:14.142Z,45.76
2023-03-22T01:42:46.829Z,46.22
2023-03-22T01:45:41.776Z,46.34
2023-03-22T01:48:37.322Z,45.56
2023-03-22T01:51:16.860Z,46.45
2023-03-22T01:54:05.094Z,45.66
2023-03-22T01:56:41.883Z,45.76
2023-03-22T01:59:15.667Z,46.41
2023-03-22T02:01:48.427Z,46.21
2023-03-22T02:04:25.151Z,46.56
2023-03-22T02:06:59.325Z,46.01
2023-03-22T02:09:31.873Z,46.02
2023-03-22T02:12:50.727Z,46.24
2023-03-22T02:15:46.928Z,46.66
2023-03-22T02:18:35.947Z,46.35
2023-03-22T02:21:44.797Z,46.74
2023-03-22T02:24:55.724Z,45.73
2023-03-22T02:27:51.552Z,46.62
2023-03-22T02:31:14.682Z,46.45
2023-03-22T02:34:29.547Z,45.92
2023-03-22T02:37:40.600Z,46.50
2023-03-22T02:40:31.045Z,45.82
2023-03-22T02:43:26.984Z,46.42
2023-03-22T02:46:07.591Z,45.94
2023-03-22T02:49:31.382Z,46.81
2023-03-22T02:52:57.463Z,45.66
2023-03-22T02:55:56.650Z,45.93
2023-03-22T02:58:53.353Z,45.93
2023-03-22T03:01:33.647Z,46.36
2023-03-22T03:04:16.350Z,46.78
2023-03-22T03:06:53.868Z,46.29
2023-03-22T03:09:26.959Z,46.31
2023-03-22T03:11:59.570Z,46.57
2023-03-22T03:14:32.685Z,46.74
2023-03-22T03:17:46.042Z,46.67
2023-03-22T03:20:56.647Z,46.38
2023-03-22T03:23:59.978Z,45.99
2023-03-22T03:27:02.456Z,46.64
2023-03-22T03:29:48.891Z,46.70
2023-03-22T03:32:42.024Z,45.64
2023-03-22T03:35:22.720Z,46.36
2023-03-22T03:38:11.980Z,46.12
2023-03-22T03:40:52.565Z,45.90
2023-03-22T03:43:28.115Z,45.53
2023-03-22T03:46:01.849Z,46.65
2023-03-22T03:48:38.694Z,46.48
2023-03-22T03:51:11.504Z,45.52
2023-03-22T03:53:44.514Z,46.08
2023-03-22T03:56:17.086Z,46.90
2023-03-22T03:58:49.806Z,46.10
2023-03-22T04:01:24.180Z,46.22
2023-03-22T04:03:56.777Z,46.02
2023-03-22T04:06:29.515Z,46.06
2023-03-22T04:09:02.416Z,46.08
2023-03-22T04:11:35.040Z,45.96
2023-03-22T04:14:08.072Z,46.41
2023-03-22T04:16:42.037Z,46.31
2023-03-22T04:19:14.960Z,45.56
2023-03-22T04:21:47.897Z,46.43
2023-03-22T04:24:22.229Z,46.63
2023-03-22T04:26:55.032Z,46.47
2023-03-22T04:29:32.225Z,46.57
2023-03-22T04:32:05.549Z,45.95
2023-03-22T04:34:38.226Z,46.60
2023-03-22T04:37:11.270Z,46.97
2023-03-22T04:39:44.903Z,45.85
2023-03-22T04:42:17.589Z,46.28
2023-03-22T04:44:50.288Z,46.35
2023-03-22T04:47:22.853Z,46.19
2023-03-22T04:49:55.456Z,46.56
2023-03-22T04:52:27.957Z,46.24
2023-03-22T04:55:00.708Z,46.32
2023-03-22T04:57:35.318Z,46.70
2023-03-22T05:00:08.822Z,46.58
2023-03-22T05:02:41.775Z,46.28
2023-03-22T05:05:14.572Z,45.60
2023-03-22T05:07:47.120Z,46.86
2023-03-22T05:10:19.751Z,46.08
2023-03-22T05:13:00.956Z,46.47
2023-03-22T05:15:33.938Z,46.28
2023-03-22T05:18:07.521Z,45.83
2023-03-22T05:20:42.116Z,46.19
2023-03-22T05:23:19.176Z,46.06
2023-03-22T05:25:54.432Z,45.85
2023-03-22T05:28:28.579Z,47.09
2023-03-22T05:31:01.590Z,46.73
2023-03-22T05:33:34.833Z,46.55
2023-03-22T05:36:09.287Z,45.72
2023-03-22T05:38:41.997Z,46.32
2023-03-22T05:41:15.124Z,45.79
2023-03-22T05:43:47.948Z,46.61
2023-03-22T05:46:20.564Z,46.67
2023-03-22T05:48:53.167Z,46.28
2023-03-22T05:51:25.919Z,46.63
2023-03-22T05:53:58.475Z,46.30
2023-03-22T05:56:31.056Z,46.25
2023-03-22T05:59:04.953Z,46.67
2023-03-22T06:01:37.651Z,46.62
2023-03-22T06:04:10.529Z,46.33
2023-03-22T06:06:43.080Z,45.89
2023-03-22T06:09:17.684Z,46.49
2023-03-22T06:11:51.155Z,46.06
2023-03-22T06:14:23.886Z,46.54
2023-03-22T06:16:56.666Z,46.07
2023-03-22T06:19:29.354Z,46.82
2023-03-22T06:22:02.070Z,46.25
2023-03-22T06:24:35.138Z,46.74
2023-03-22T06:27:08.012Z,46.00
2023-03-22T06:29:40.996Z,46.85
2023-03-22T06:32:13.658Z,46.19
2023-03-22T06:34:46.596Z,46.21
2023-03-22T06:37:19.541Z,46.27
2023-03-22T06:39:52.312Z,46.21
2023-03-22T06:42:26.011Z,46.43
2023-03-22T06:44:58.527Z,46.35
2023-03-22T06:47:31.219Z,46.78
2023-03-22T06:50:04.083Z,46.85
2023-03-22T06:52:36.926Z,47.01
2023-03-22T06:55:09.875Z,46.05
2023-03-22T06:57:42.506Z,46.54
2023-03-22T07:00:23.349Z,46.27
2023-03-22T07:02:55.989Z,47.13
2023-03-22T07:05:28.859Z,46.50
2023-03-22T07:08:01.862Z,46.78
2023-03-22T07:10:34.479Z,46.88
2023-03-22T07:13:07.055Z,46.22
2023-03-22T07:15:40.521Z,46.37
2023-03-22T07:18:13.297Z,46.42
2023-03-22T07:20:46.147Z,45.74
2023-03-22T07:23:19.683Z,45.98
2023-03-22T07:25:52.316Z,45.77
2023-03-22T07:28:24.938Z,46.52
2023-03-22T07:31:07.350Z,46.62
2023-03-22T07:33:41.024Z,46.25
2023-03-22T07:36:14.376Z,46.20
2023-03-22T07:38:47.039Z,45.79
2023-03-22T07:41:19.624Z,45.91
2023-03-22T07:43:56.770Z,45.69
2023-03-22T07:46:30.886Z,45.98
2023-03-22T07:49:03.456Z,45.28
2023-03-22T07:51:35.939Z,45.29
2023-03-22T07:54:08.488Z,46.01
2023-03-22T07:56:42.727Z,46.03
2023-03-22T07:59:17.288Z,44.95
2023-03-22T08:01:50.104Z,45.81
2023-03-22T08:04:23.429Z,45.64
2023-03-22T08:06:58.889Z,44.77
2023-03-22T08:09:31.544Z,45.06
2023-03-22T08:12:04.344Z,44.97
2023-03-22T08:14:37.663Z,44.99
2023-03-22T08:17:10.319Z,45.15
2023-03-22T08:19:43.193Z,45.63
2023-03-22T08:22:15.917Z,44.84
2023-03-22T08:24:48.470Z,44.53
2023-03-22T08:27:22.080Z,45.19
2023-03-22T08:29:54.847Z,45.33
2023-03-22T08:32:27.509Z,44.59
2023-03-22T08:35:00.395Z,44.71
2023-03-22T08:37:33.322Z,44.95
2023-03-22T08:40:09.616Z,44.43
2023-03-22T08:42:42.169Z,45.10
2023-03-22T08:45:15.034Z,44.64
2023-03-22T08:47:47.649Z,44.68
2023-03-22T08:50:20.376Z,44.38
2023-03-22T08:52:53.775Z,44.72
2023-03-22T08:55:26.354Z,44.59
2023-03-22T09:01:10.192Z,44.34
2023-03-22T09:03:43.245Z,44.37
2023-03-22T09:06:16.114Z,44.71
2023-03-22T09:11:44.081Z,44.65
2023-03-22T09:14:16.781Z,44.50
2023-03-22T09:16:58.618Z,44.87
2023-03-22T09:19:31.785Z,44.28
2023-03-22T09:22:04.300Z,44.29
2023-03-22T09:24:36.841Z,44.43
2023-03-22T09:27:09.462Z,44.72
2023-03-22T09:29:42.438Z,44.51
2023-03-22T09:32:15.137Z,43.78
2023-03-22T09:34:48.197Z,44.34
2023-03-22T09:37:20.957Z,44.33
2023-03-22T09:39:54.441Z,44.45
2023-03-22T09:42:40.658Z,44.52
2023-03-22T09:45:32.144Z,44.04
2023-03-22T09:48:17.087Z,44.00
2023-03-22T09:50:54.274Z,44.56
2023-03-22T09:53:29.845Z,43.99
2023-03-22T09:56:17.892Z,44.30
2023-03-22T09:59:20.507Z,44.46
2023-03-22T10:02:05.153Z,44.67
2023-03-22T10:04:54.646Z,44.85
2023-03-22T10:07:52.241Z,44.60
2023-03-22T10:10:26.423Z,44.34
2023-03-22T10:13:23.992Z,44.25
2023-03-22T10:16:02.028Z,44.73
2023-03-22T10:18:40.858Z,44.43
2023-03-22T10:21:17.756Z,44.64
2023-03-22T10:23:56.043Z,44.34
2023-03-22T10:26:38.616Z,44.83
2023-03-22T10:29:29.268Z,44.65
2023-03-22T10:32:51.121Z,44.32
2023-03-22T10:35:32.385Z,44.47
2023-03-22T10:38:18.099Z,44.43
2023-03-22T10:40:55.620Z,44.65
2023-03-22T10:43:35.950Z,44.67
2023-03-22T10:46:18.779Z,44.59
2023-03-22T10:48:59.546Z,44.41
2023-03-22T10:51:56.987Z,44.62
2023-03-22T10:54:30.455Z,44.59
2023-03-22T10:57:03.455Z,44.78
2023-03-22T10:59:42.789Z,44.59
2023-03-22T11:02:28.859Z,45.41
2023-03-22T11:05:05.940Z,44.89
2023-03-22T11:07:44.803Z,45.01
2023-03-22T11:10:34.676Z,44.82
2023-03-22T11:13:07.327Z,45.25
2023-03-22T11:15:50.911Z,45.22
2023-03-22T11:18:29.865Z,45.21
2023-03-22T11:21:11.947Z,44.83
2023-03-22T11:24:05.762Z,44.75
2023-03-22T11:26:41.415Z,44.58
2023-03-22T11:29:18.899Z,45.45
2023-03-22T11:31:59.642Z,45.08
2023-03-22T11:34:32.344Z,45.48
2023-03-22T11:37:09.222Z,44.99
2023-03-22T11:39:50.588Z,45.01
2023-03-22T11:42:25.578Z,45.18
2023-03-22T11:44:58.364Z,45.15
2023-03-22T11:47:39.401Z,45.08
2023-03-22T11:50:43.801Z,45.28
2023-03-22T11:53:26.335Z,45.60
2023-03-22T11:55:59.893Z,45.47
2023-03-22T11:58:55.017Z,45.20
2023-03-22T12:01:49.766Z,45.44
2023-03-22T12:04:28.477Z,44.57
2023-03-22T12:07:10.747Z,45.85
2023-03-22T12:10:22.887Z,45.25
2023-03-22T12:13:07.192Z,44.91
2023-03-22T12:15:50.536Z,45.53
2023-03-22T12:18:34.396Z,45.59
2023-03-22T12:21:11.888Z,45.42
2023-03-22T12:23:44.426Z,45.60
2023-03-22T12:26:27.932Z,45.09
2023-03-22T12:29:06.761Z,45.89
2023-03-22T12:31:53.000Z,45.82
2023-03-22T12:34:38.697Z,45.83
2023-03-22T12:37:21.719Z,45.85
2023-03-22T12:40:05.712Z,45.86
2023-03-22T12:42:56.637Z,45.52
2023-03-22T12:45:39.878Z,45.58
2023-03-22T12:48:52.110Z,46.11
2023-03-22T12:51:24.697Z,45.16
2023-03-22T12:54:01.119Z,45.61
2023-03-22T12:56:42.060Z,45.25
2023-03-22T12:59:24.472Z,45.50
2023-03-22T13:02:22.007Z,45.28
2023-03-22T13:04:59.115Z,45.59
2023-03-22T13:07:51.695Z,45.53
2023-03-22T13:10:34.246Z,45.55
2023-03-22T13:13:22.013Z,46.05
2023-03-22T13:16:09.885Z,46.28
2023-03-22T13:18:42.454Z,45.98
2023-03-22T13:21:19.203Z,46.03
2023-03-22T13:24:00.550Z,46.13
2023-03-22T13:26:55.258Z,46.51
2023-03-22T13:29:38.266Z,45.81
2023-03-22T13:32:33.769Z,45.59
2023-03-22T13:35:26.278Z,45.84
2023-03-22T13:38:10.525Z,46.21
2023-03-22T13:40:56.810Z,45.62
2023-03-22T13:43:32.056Z,46.01
2023-03-22T13:46:11.542Z,45.89
2023-03-22T13:48:46.862Z,45.34
2023-03-22T13:51:32.704Z,45.57
2023-03-22T13:54:14.848Z,45.27
2023-03-22T13:56:57.081Z,46.06
2023-03-22T14:00:10.263Z,46.17
2023-03-22T14:02:45.956Z,45.51
2023-03-22T14:05:25.105Z,45.79
2023-03-22T14:08:00.658Z,46.10
2023-03-22T14:10:44.385Z,45.42
2023-03-22T14:13:38.539Z,45.79
2023-03-22T14:16:38.228Z,45.45
2023-03-22T14:19:25.620Z,45.50
